sensor_id;sensor_type;location;lat;lon;timestamp;pressure;altitude;pressure_sealevel;temperature;humidity
35878;BME280;21982;49.804;24.072;2023-04-08T00:02:11;97544.88;;;5.22;70.15
35878;BME280;21982;49.804;24.072;2023-04-08T00:04:37;97565.88;;;5.22;70.38
35878;BME280;21982;49.804;24.072;2023-04-08T00:07:02;97546.34;;;5.17;70.01
35878;BME280;21982;49.804;24.072;2023-04-08T00:09:31;97458.00;;;4.62;70.21
35878;BME280;21982;49.804;24.072;2023-04-08T00:11:57;97415.28;;;4.25;69.96
35878;BME280;21982;49.804;24.072;2023-04-08T00:14:25;97453.97;;;4.41;70.35
35878;BME280;21982;49.804;24.072;2023-04-08T00:16:50;97499.03;;;4.54;70.22
35878;BME280;21982;49.804;24.072;2023-04-08T00:19:17;97403.56;;;3.92;70.43
35878;BME280;21982;49.804;24.072;2023-04-08T00:21:42;97449.25;;;4.17;70.81
35878;BME280;21982;49.804;24.072;2023-04-08T00:24:08;97475.50;;;4.44;70.74
35878;BME280;21982;49.804;24.072;2023-04-08T00:26:33;97408.34;;;4.06;70.91
35878;BME280;21982;49.804;24.072;2023-04-08T00:28:58;97530.22;;;4.84;71.33
35878;BME280;21982;49.804;24.072;2023-04-08T00:31:24;97530.72;;;4.88;71.10
35878;BME280;21982;49.804;24.072;2023-04-08T00:33:50;97492.22;;;4.61;70.88
35878;BME280;21982;49.804;24.072;2023-04-08T00:36:15;97533.50;;;4.86;70.90
35878;BME280;21982;49.804;24.072;2023-04-08T00:38:41;97559.50;;;5.07;71.29
35878;BME280;21982;49.804;24.072;2023-04-08T00:41:07;97424.25;;;4.22;71.11
35878;BME280;21982;49.804;24.072;2023-04-08T00:43:32;97444.41;;;4.49;71.47
35878;BME280;21982;49.804;24.072;2023-04-08T00:45:57;97554.06;;;5.18;71.37
35878;BME280;21982;49.804;24.072;2023-04-08T00:48:23;97354.78;;;3.81;71.35
35878;BME280;21982;49.804;24.072;2023-04-08T00:50:48;97464.97;;;4.71;71.76
35878;BME280;21982;49.804;24.072;2023-04-08T00:53:16;97552.56;;;5.33;71.35
35878;BME280;21982;49.804;24.072;2023-04-08T00:55:42;97556.84;;;5.34;71.32
35878;BME280;21982;49.804;24.072;2023-04-08T00:58:07;97469.72;;;4.86;71.37
35878;BME280;21982;49.804;24.072;2023-04-08T01:00:34;97391.59;;;4.44;71.15
35878;BME280;21982;49.804;24.072;2023-04-08T01:05:32;97479.56;;;5.01;71.44
35878;BME280;21982;49.804;24.072;2023-04-08T01:08:00;97442.16;;;4.82;71.41
35878;BME280;21982;49.804;24.072;2023-04-08T01:10:30;97490.38;;;5.16;71.39
35878;BME280;21982;49.804;24.072;2023-04-08T01:13:20;97550.44;;;5.55;71.05
35878;BME280;21982;49.804;24.072;2023-04-08T01:15:52;97393.41;;;4.61;71.43
35878;BME280;21982;49.804;24.072;2023-04-08T01:18:21;97559.84;;;5.57;71.24
35878;BME280;21982;49.804;24.072;2023-04-08T01:20:49;97485.25;;;4.97;71.38
35878;BME280;21982;49.804;24.072;2023-04-08T01:23:31;97461.66;;;5.15;70.91
35878;BME280;21982;49.804;24.072;2023-04-08T01:25:57;97485.81;;;5.18;71.48
35878;BME280;21982;49.804;24.072;2023-04-08T01:28:25;97556.69;;;5.71;71.52
35878;BME280;21982;49.804;24.072;2023-04-08T01:30:54;97555.84;;;5.71;71.52
35878;BME280;21982;49.804;24.072;2023-04-08T01:33:21;97505.53;;;5.40;71.83
35878;BME280;21982;49.804;24.072;2023-04-08T01:35:47;97515.19;;;5.39;71.50
35878;BME280;21982;49.804;24.072;2023-04-08T01:38:17;97563.81;;;5.79;71.31
35878;BME280;21982;49.804;24.072;2023-04-08T01:40:45;97478.28;;;5.23;71.54
35878;BME280;21982;49.804;24.072;2023-04-08T01:43:14;97554.50;;;5.67;71.37
35878;BME280;21982;49.804;24.072;2023-04-08T01:45:42;97491.63;;;5.30;71.06
35878;BME280;21982;49.804;24.072;2023-04-08T01:48:08;97578.22;;;5.75;71.36
35878;BME280;21982;49.804;24.072;2023-04-08T01:50:34;97541.81;;;5.62;71.19
35878;BME280;21982;49.804;24.072;2023-04-08T01:53:01;97568.09;;;5.80;71.36
35878;BME280;21982;49.804;24.072;2023-04-08T01:55:28;97586.50;;;5.80;71.11
35878;BME280;21982;49.804;24.072;2023-04-08T01:57:58;97571.47;;;5.90;71.30
35878;BME280;21982;49.804;24.072;2023-04-08T02:00:28;97537.53;;;5.79;71.04
35878;BME280;21982;49.804;24.072;2023-04-08T02:02:55;97461.94;;;5.29;71.06
35878;BME280;21982;49.804;24.072;2023-04-08T02:05:21;97574.31;;;5.97;71.24
35878;BME280;21982;49.804;24.072;2023-04-08T02:07:47;97549.09;;;5.86;71.06
35878;BME280;21982;49.804;24.072;2023-04-08T02:10:13;97530.88;;;5.67;71.02
35878;BME280;21982;49.804;24.072;2023-04-08T02:12:38;97546.41;;;5.78;71.27
35878;BME280;21982;49.804;24.072;2023-04-08T02:15:04;97575.00;;;5.99;71.23
35878;BME280;21982;49.804;24.072;2023-04-08T02:17:44;97572.28;;;6.09;71.05
35878;BME280;21982;49.804;24.072;2023-04-08T02:20:20;97573.63;;;6.13;70.70
35878;BME280;21982;49.804;24.072;2023-04-08T02:25:28;97486.19;;;5.67;70.75
35878;BME280;21982;49.804;24.072;2023-04-08T02:27:54;97477.88;;;5.71;70.57
35878;BME280;21982;49.804;24.072;2023-04-08T02:30:20;97582.75;;;6.26;70.23
35878;BME280;21982;49.804;24.072;2023-04-08T02:32:47;97585.38;;;6.26;70.85
35878;BME280;21982;49.804;24.072;2023-04-08T02:35:15;97569.75;;;6.25;70.68
35878;BME280;21982;49.804;24.072;2023-04-08T02:37:41;97574.19;;;6.24;70.51
35878;BME280;21982;49.804;24.072;2023-04-08T02:40:30;97551.72;;;6.04;70.12
35878;BME280;21982;49.804;24.072;2023-04-08T02:42:56;97577.53;;;6.09;70.64
35878;BME280;21982;49.804;24.072;2023-04-08T02:45:24;97377.16;;;4.76;71.12
35878;BME280;21982;49.804;24.072;2023-04-08T02:47:51;97576.88;;;6.07;70.75
35878;BME280;21982;49.804;24.072;2023-04-08T02:50:17;97382.16;;;4.87;70.71
35878;BME280;21982;49.804;24.072;2023-04-08T02:52:42;97593.78;;;6.04;71.08
35878;BME280;21982;49.804;24.072;2023-04-08T02:55:09;97575.53;;;6.02;71.34
35878;BME280;21982;49.804;24.072;2023-04-08T02:57:39;97496.28;;;5.54;70.75
35878;BME280;21982;49.804;24.072;2023-04-08T03:00:05;97540.47;;;5.76;71.03
35878;BME280;21982;49.804;24.072;2023-04-08T03:02:31;97574.19;;;5.98;70.97
35878;BME280;21982;49.804;24.072;2023-04-08T03:04:57;97437.50;;;5.11;70.95
35878;BME280;21982;49.804;24.072;2023-04-08T03:07:22;97580.47;;;6.05;71.04
35878;BME280;21982;49.804;24.072;2023-04-08T03:09:49;97452.31;;;5.20;71.46
35878;BME280;21982;49.804;24.072;2023-04-08T03:12:15;97581.81;;;6.10;71.27
35878;BME280;21982;49.804;24.072;2023-04-08T03:14:40;97592.50;;;6.08;71.19
35878;BME280;21982;49.804;24.072;2023-04-08T03:17:05;97585.59;;;6.07;70.62
35878;BME280;21982;49.804;24.072;2023-04-08T03:19:32;97539.19;;;5.80;70.56
35878;BME280;21982;49.804;24.072;2023-04-08T03:21:57;97566.22;;;5.90;71.01
35878;BME280;21982;49.804;24.072;2023-04-08T03:24:22;97588.66;;;6.20;71.05
35878;BME280;21982;49.804;24.072;2023-04-08T03:26:48;97557.03;;;6.12;70.80
35878;BME280;21982;49.804;24.072;2023-04-08T03:29:13;97587.56;;;6.31;70.49
35878;BME280;21982;49.804;24.072;2023-04-08T03:31:39;97457.88;;;5.53;70.35
35878;BME280;21982;49.804;24.072;2023-04-08T03:34:04;97588.81;;;6.19;70.09
35878;BME280;21982;49.804;24.072;2023-04-08T03:36:30;97558.53;;;6.15;70.42
35878;BME280;21982;49.804;24.072;2023-04-08T03:38:55;97515.09;;;5.85;70.67
35878;BME280;21982;49.804;24.072;2023-04-08T03:41:20;97438.69;;;5.34;70.18
35878;BME280;21982;49.804;24.072;2023-04-08T03:43:46;97587.19;;;6.26;70.40
35878;BME280;21982;49.804;24.072;2023-04-08T03:46:11;97594.91;;;6.27;70.37
35878;BME280;21982;49.804;24.072;2023-04-08T03:48:37;97554.34;;;6.04;70.52
35878;BME280;21982;49.804;24.072;2023-04-08T03:51:02;97595.13;;;6.34;69.86
35878;BME280;21982;49.804;24.072;2023-04-08T03:53:27;97503.00;;;5.74;70.36
35878;BME280;21982;49.804;24.072;2023-04-08T03:55:55;97481.63;;;5.69;70.29
35878;BME280;21982;49.804;24.072;2023-04-08T03:58:20;97540.06;;;6.07;70.26
35878;BME280;21982;49.804;24.072;2023-04-08T04:00:46;97597.47;;;6.37;69.87
35878;BME280;21982;49.804;24.072;2023-04-08T04:03:11;97610.69;;;6.27;69.85
35878;BME280;21982;49.804;24.072;2023-04-08T04:05:37;97598.66;;;6.17;69.50
35878;BME280;21982;49.804;24.072;2023-04-08T04:08:03;97597.16;;;6.14;70.15
35878;BME280;21982;49.804;24.072;2023-04-08T04:10:29;97600.59;;;6.15;70.15
35878;BME280;21982;49.804;24.072;2023-04-08T04:12:55;97446.19;;;5.12;70.16
35878;BME280;21982;49.804;24.072;2023-04-08T04:15:20;97580.34;;;5.89;70.50
35878;BME280;21982;49.804;24.072;2023-04-08T04:17:48;97556.84;;;5.88;70.42
35878;BME280;21982;49.804;24.072;2023-04-08T04:20:16;97482.78;;;5.49;70.16
35878;BME280;21982;49.804;24.072;2023-04-08T04:22:41;97540.13;;;5.89;70.42
35878;BME280;21982;49.804;24.072;2023-04-08T04:25:08;97616.84;;;6.36;70.12
35878;BME280;21982;49.804;24.072;2023-04-08T04:27:34;97587.00;;;6.19;69.84
35878;BME280;21982;49.804;24.072;2023-04-08T04:30:01;97496.84;;;5.65;70.37
35878;BME280;21982;49.804;24.072;2023-04-08T04:32:27;97615.03;;;6.36;69.99
35878;BME280;21982;49.804;24.072;2023-04-08T04:34:53;97492.88;;;5.61;69.52
35878;BME280;21982;49.804;24.072;2023-04-08T04:37:18;97606.63;;;6.33;70.12
35878;BME280;21982;49.804;24.072;2023-04-08T04:39:43;97481.84;;;5.58;69.73
35878;BME280;21982;49.804;24.072;2023-04-08T04:42:09;97611.97;;;6.41;69.75
35878;BME280;21982;49.804;24.072;2023-04-08T04:44:35;97545.41;;;5.97;69.80
35878;BME280;21982;49.804;24.072;2023-04-08T04:47:00;97611.44;;;6.37;69.86
35878;BME280;21982;49.804;24.072;2023-04-08T04:49:26;97613.91;;;6.39;69.85
35878;BME280;21982;49.804;24.072;2023-04-08T04:51:51;97585.94;;;6.12;69.94
35878;BME280;21982;49.804;24.072;2023-04-08T04:54:16;97616.78;;;6.28;69.91
35878;BME280;21982;49.804;24.072;2023-04-08T04:56:42;97458.78;;;5.26;70.04
35878;BME280;21982;49.804;24.072;2023-04-08T04:59:07;97467.84;;;5.31;70.39
35878;BME280;21982;49.804;24.072;2023-04-08T05:01:33;97641.34;;;6.36;70.19
35878;BME280;21982;49.804;24.072;2023-04-08T05:03:59;97642.03;;;6.38;70.22
35878;BME280;21982;49.804;24.072;2023-04-08T05:06:24;97642.47;;;6.34;70.01
35878;BME280;21982;49.804;24.072;2023-04-08T05:08:51;97593.56;;;5.97;70.11
35878;BME280;21982;49.804;24.072;2023-04-08T05:11:16;97627.19;;;6.12;69.91
35878;BME280;21982;49.804;24.072;2023-04-08T05:13:46;97530.75;;;5.51;70.55
35878;BME280;21982;49.804;24.072;2023-04-08T05:16:12;97467.56;;;5.17;70.38
35878;BME280;21982;49.804;24.072;2023-04-08T05:18:39;97521.97;;;5.42;70.35
35878;BME280;21982;49.804;24.072;2023-04-08T05:21:04;97538.31;;;5.54;70.66
35878;BME280;21982;49.804;24.072;2023-04-08T05:23:41;97659.41;;;6.14;70.50
35878;BME280;21982;49.804;24.072;2023-04-08T05:26:07;97517.97;;;5.38;70.83
35878;BME280;21982;49.804;24.072;2023-04-08T05:28:33;97559.00;;;5.57;70.71
35878;BME280;21982;49.804;24.072;2023-04-08T05:30:59;97548.19;;;5.60;70.60
35878;BME280;21982;49.804;24.072;2023-04-08T05:33:24;97558.88;;;5.76;70.41
35878;BME280;21982;49.804;24.072;2023-04-08T05:35:50;97193.34;;;3.45;70.25
35878;BME280;21982;49.804;24.072;2023-04-08T05:38:17;97411.84;;;4.69;70.42
35878;BME280;21982;49.804;24.072;2023-04-08T05:40:42;97653.88;;;6.17;71.14
35878;BME280;21982;49.804;24.072;2023-04-08T05:43:07;97517.75;;;5.31;70.18
35878;BME280;21982;49.804;24.072;2023-04-08T05:45:33;97556.03;;;5.52;71.25
35878;BME280;21982;49.804;24.072;2023-04-08T05:47:58;97652.13;;;6.08;70.84
35878;BME280;21982;49.804;24.072;2023-04-08T05:50:24;97625.69;;;5.91;71.08
35878;BME280;21982;49.804;24.072;2023-04-08T05:52:49;97455.72;;;4.95;70.96
35878;BME280;21982;49.804;24.072;2023-04-08T05:55:15;97666.41;;;6.23;71.02
35878;BME280;21982;49.804;24.072;2023-04-08T05:57:43;97648.03;;;6.31;70.71
35878;BME280;21982;49.804;24.072;2023-04-08T06:00:09;97647.22;;;6.30;71.25
35878;BME280;21982;49.804;24.072;2023-04-08T06:02:36;97650.66;;;6.31;71.03
35878;BME280;21982;49.804;24.072;2023-04-08T06:05:02;97532.75;;;5.57;71.06
35878;BME280;21982;49.804;24.072;2023-04-08T06:07:28;97530.50;;;5.62;71.16
35878;BME280;21982;49.804;24.072;2023-04-08T06:09:56;97656.00;;;6.39;70.88
35878;BME280;21982;49.804;24.072;2023-04-08T06:12:22;97669.22;;;6.29;70.75
35878;BME280;21982;49.804;24.072;2023-04-08T06:14:47;97661.88;;;6.33;71.34
35878;BME280;21982;49.804;24.072;2023-04-08T06:17:17;97512.13;;;5.44;71.07
35878;BME280;21982;49.804;24.072;2023-04-08T06:19:45;97666.06;;;6.44;70.63
35878;BME280;21982;49.804;24.072;2023-04-08T06:22:10;97569.38;;;5.76;71.00
35878;BME280;21982;49.804;24.072;2023-04-08T06:24:36;97674.78;;;6.44;71.09
35878;BME280;21982;49.804;24.072;2023-04-08T06:27:01;97601.44;;;5.80;70.95
35878;BME280;21982;49.804;24.072;2023-04-08T06:29:28;97684.69;;;6.50;70.84
35878;BME280;21982;49.804;24.072;2023-04-08T06:31:54;97654.56;;;6.27;70.86
35878;BME280;21982;49.804;24.072;2023-04-08T06:34:20;97570.56;;;5.64;70.93
35878;BME280;21982;49.804;24.072;2023-04-08T06:36:45;97693.56;;;6.49;70.97
35878;BME280;21982;49.804;24.072;2023-04-08T06:39:12;97590.69;;;5.91;70.71
35878;BME280;21982;49.804;24.072;2023-04-08T06:41:39;97564.13;;;5.76;70.67
35878;BME280;21982;49.804;24.072;2023-04-08T06:44:04;97596.56;;;5.85;71.16
35878;BME280;21982;49.804;24.072;2023-04-08T06:46:29;97598.94;;;5.78;71.00
35878;BME280;21982;49.804;24.072;2023-04-08T06:48:55;97702.97;;;6.34;71.09
35878;BME280;21982;49.804;24.072;2023-04-08T06:51:20;97704.78;;;6.33;71.35
35878;BME280;21982;49.804;24.072;2023-04-08T06:53:46;97619.00;;;5.79;71.43
35878;BME280;21982;49.804;24.072;2023-04-08T06:56:11;97653.84;;;5.99;71.12
35878;BME280;21982;49.804;24.072;2023-04-08T06:58:37;97699.34;;;6.35;71.48
35878;BME280;21982;49.804;24.072;2023-04-08T07:01:05;97570.72;;;5.62;71.17
35878;BME280;21982;49.804;24.072;2023-04-08T07:03:32;97698.84;;;6.49;71.29
35878;BME280;21982;49.804;24.072;2023-04-08T07:05:57;97648.88;;;6.31;70.91
35878;BME280;21982;49.804;24.072;2023-04-08T07:08:23;97711.25;;;6.83;71.38
35878;BME280;21982;49.804;24.072;2023-04-08T07:10:48;97704.31;;;6.82;70.85
35878;BME280;21982;49.804;24.072;2023-04-08T07:13:15;97635.72;;;6.31;70.91
35878;BME280;21982;49.804;24.072;2023-04-08T07:15:44;97563.97;;;5.95;70.80
35878;BME280;21982;49.804;24.072;2023-04-08T07:18:09;97711.97;;;6.93;71.03
35878;BME280;21982;49.804;24.072;2023-04-08T07:20:34;97688.53;;;6.82;70.75
35878;BME280;21982;49.804;24.072;2023-04-08T07:23:02;97666.13;;;6.78;70.39
35878;BME280;21982;49.804;24.072;2023-04-08T07:25:27;97633.59;;;6.53;70.36
35878;BME280;21982;49.804;24.072;2023-04-08T07:27:54;97728.28;;;7.22;70.50
35878;BME280;21982;49.804;24.072;2023-04-08T07:30:22;97714.75;;;7.17;69.67
35878;BME280;21982;49.804;24.072;2023-04-08T07:32:47;97616.66;;;6.55;70.49
35878;BME280;21982;49.804;24.072;2023-04-08T07:35:13;97732.72;;;7.22;70.03
35878;BME280;21982;49.804;24.072;2023-04-08T07:37:38;97521.59;;;5.98;69.82
35878;BME280;21982;49.804;24.072;2023-04-08T07:40:04;97696.97;;;7.19;70.39
35878;BME280;21982;49.804;24.072;2023-04-08T07:42:30;97602.19;;;6.59;69.94
35878;BME280;21982;49.804;24.072;2023-04-08T07:44:56;97707.06;;;7.32;70.27
35878;BME280;21982;49.804;24.072;2023-04-08T07:47:21;97732.34;;;7.51;69.74
35878;BME280;21982;49.804;24.072;2023-04-08T07:49:46;97696.00;;;7.28;69.97
35878;BME280;21982;49.804;24.072;2023-04-08T07:52:12;97734.72;;;7.62;69.64
35878;BME280;21982;49.804;24.072;2023-04-08T07:54:37;97745.41;;;7.68;69.55
35878;BME280;21982;49.804;24.072;2023-04-08T07:57:03;97670.00;;;7.25;69.35
35878;BME280;21982;49.804;24.072;2023-04-08T07:59:28;97755.84;;;7.78;69.40
35878;BME280;21982;49.804;24.072;2023-04-08T08:01:54;97755.53;;;7.81;69.25
35878;BME280;21982;49.804;24.072;2023-04-08T08:04:19;97748.47;;;7.98;69.26
35878;BME280;21982;49.804;24.072;2023-04-08T08:06:45;97756.94;;;8.10;68.50
35878;BME280;21982;49.804;24.072;2023-04-08T08:09:12;97756.94;;;8.18;68.82
35878;BME280;21982;49.804;24.072;2023-04-08T08:11:38;97736.50;;;8.12;68.45
35878;BME280;21982;49.804;24.072;2023-04-08T08:14:03;97754.66;;;8.23;68.57
35878;BME280;21982;49.804;24.072;2023-04-08T08:16:29;97742.97;;;8.25;68.47
35878;BME280;21982;49.804;24.072;2023-04-08T08:18:55;97722.31;;;8.13;68.38
35878;BME280;21982;49.804;24.072;2023-04-08T08:21:23;97759.31;;;8.37;68.42
35878;BME280;21982;49.804;24.072;2023-04-08T08:23:51;97714.88;;;8.08;67.96
35878;BME280;21982;49.804;24.072;2023-04-08T08:26:16;97724.28;;;8.11;68.36
35878;BME280;21982;49.804;24.072;2023-04-08T08:28:42;97753.00;;;8.22;68.55
35878;BME280;21982;49.804;24.072;2023-04-08T08:31:07;97754.00;;;8.21;68.49
35878;BME280;21982;49.804;24.072;2023-04-08T08:33:32;97626.25;;;7.40;68.35
35878;BME280;21982;49.804;24.072;2023-04-08T08:35:59;97732.50;;;7.99;67.90
35878;BME280;21982;49.804;24.072;2023-04-08T08:38:25;97759.59;;;8.18;68.15
35878;BME280;21982;49.804;24.072;2023-04-08T08:40:55;97739.94;;;8.04;68.13
35878;BME280;21982;49.804;24.072;2023-04-08T08:43:21;97763.25;;;8.25;68.50
35878;BME280;21982;49.804;24.072;2023-04-08T08:45:46;97760.28;;;8.28;68.20
35878;BME280;21982;49.804;24.072;2023-04-08T08:48:12;97755.81;;;8.20;67.43
35878;BME280;21982;49.804;24.072;2023-04-08T08:50:37;97766.53;;;8.27;67.98
35878;BME280;21982;49.804;24.072;2023-04-08T08:53:02;97766.53;;;8.27;67.79
35878;BME280;21982;49.804;24.072;2023-04-08T08:55:32;97771.81;;;8.27;67.98
35878;BME280;21982;49.804;24.072;2023-04-08T08:58:02;97774.44;;;8.19;68.37
35878;BME280;21982;49.804;24.072;2023-04-08T09:00:39;97772.28;;;8.14;67.90
35878;BME280;21982;49.804;24.072;2023-04-08T09:03:23;97668.91;;;7.44;67.85
35878;BME280;21982;49.804;24.072;2023-04-08T09:06:05;97648.28;;;7.31;68.50
35878;BME280;21982;49.804;24.072;2023-04-08T09:08:33;97780.66;;;8.10;68.70
35878;BME280;21982;49.804;24.072;2023-04-08T09:11:15;97773.50;;;8.36;68.11
35878;BME280;21982;49.804;24.072;2023-04-08T09:16:30;97730.59;;;8.34;68.00
35878;BME280;21982;49.804;24.072;2023-04-08T09:19:07;97778.50;;;8.63;68.22
35878;BME280;21982;49.804;24.072;2023-04-08T09:21:35;97654.53;;;7.81;67.73
35878;BME280;21982;49.804;24.072;2023-04-08T09:24:00;97756.69;;;8.37;68.28
35878;BME280;21982;49.804;24.072;2023-04-08T09:26:28;97779.47;;;8.46;68.14
35878;BME280;21982;49.804;24.072;2023-04-08T09:29:05;97654.66;;;7.71;67.94
35878;BME280;21982;49.804;24.072;2023-04-08T09:31:33;97796.63;;;8.50;68.49
35878;BME280;21982;49.804;24.072;2023-04-08T09:34:08;97781.47;;;8.60;67.98
35878;BME280;21982;49.804;24.072;2023-04-08T09:36:34;97746.44;;;8.34;67.96
35878;BME280;21982;49.804;24.072;2023-04-08T09:39:00;97790.72;;;8.64;67.58
35878;BME280;21982;49.804;24.072;2023-04-08T09:41:29;97787.72;;;8.84;67.88
35878;BME280;21982;49.804;24.072;2023-04-08T09:43:58;97700.44;;;8.45;67.22
35878;BME280;21982;49.804;24.072;2023-04-08T09:46:25;97782.44;;;9.08;67.76
35878;BME280;21982;49.804;24.072;2023-04-08T09:49:04;97789.69;;;9.30;67.45
35878;BME280;21982;49.804;24.072;2023-04-08T09:51:43;97589.13;;;8.08;66.93
35878;BME280;21982;49.804;24.072;2023-04-08T09:54:19;97789.03;;;9.28;66.50
35878;BME280;21982;49.804;24.072;2023-04-08T09:57:00;97722.69;;;8.83;67.16
35878;BME280;21982;49.804;24.072;2023-04-08T09:59:31;97745.00;;;8.96;66.93
35878;BME280;21982;49.804;24.072;2023-04-08T10:02:00;97794.47;;;9.27;67.06
35878;BME280;21982;49.804;24.072;2023-04-08T10:04:31;97703.41;;;8.74;66.48
35878;BME280;21982;49.804;24.072;2023-04-08T10:07:03;97791.63;;;9.36;66.80
35878;BME280;21982;49.804;24.072;2023-04-08T10:09:30;97670.59;;;8.52;66.60
35878;BME280;21982;49.804;24.072;2023-04-08T10:11:57;97727.81;;;8.76;66.63
35878;BME280;21982;49.804;24.072;2023-04-08T10:14:22;97694.03;;;8.63;67.01
35878;BME280;21982;49.804;24.072;2023-04-08T10:16:47;97789.34;;;9.25;66.99
35878;BME280;21982;49.804;24.072;2023-04-08T10:19:36;97772.00;;;9.31;66.36
35878;BME280;21982;49.804;24.072;2023-04-08T10:25:32;97748.97;;;9.48;66.62
35878;BME280;21982;49.804;24.072;2023-04-08T10:28:22;97759.28;;;9.73;65.85
35878;BME280;21982;49.804;24.072;2023-04-08T10:30:54;97779.91;;;9.86;65.52
35878;BME280;21982;49.804;24.072;2023-04-08T10:35:58;97677.91;;;9.61;65.24
35878;BME280;21982;49.804;24.072;2023-04-08T10:38:24;97750.00;;;10.17;65.18
35878;BME280;21982;49.804;24.072;2023-04-08T10:40:49;97737.75;;;10.24;64.50
35878;BME280;21982;49.804;24.072;2023-04-08T10:43:15;97786.44;;;10.68;64.35
35878;BME280;21982;49.804;24.072;2023-04-08T10:45:42;97778.53;;;10.83;63.43
35878;BME280;21982;49.804;24.072;2023-04-08T10:48:15;97783.28;;;10.88;63.46
35878;BME280;21982;49.804;24.072;2023-04-08T10:51:03;97684.25;;;10.36;63.22
35878;BME280;21982;49.804;24.072;2023-04-08T10:53:36;97719.41;;;10.83;62.91
35878;BME280;21982;49.804;24.072;2023-04-08T10:56:11;97609.06;;;10.23;62.28
35878;BME280;21982;49.804;24.072;2023-04-08T10:58:54;97768.31;;;11.32;62.23
35878;BME280;21982;49.804;24.072;2023-04-08T11:01:21;97788.25;;;11.58;62.64
35878;BME280;21982;49.804;24.072;2023-04-08T11:03:48;97739.78;;;11.64;61.49
35878;BME280;21982;49.804;24.072;2023-04-08T11:06:14;97771.25;;;12.11;60.94
35878;BME280;21982;49.804;24.072;2023-04-08T11:08:39;97765.63;;;12.21;60.50
35878;BME280;21982;49.804;24.072;2023-04-08T11:11:07;97759.84;;;12.17;60.33
35878;BME280;21982;49.804;24.072;2023-04-08T11:13:40;97763.22;;;12.26;60.29
35878;BME280;21982;49.804;24.072;2023-04-08T11:16:07;97765.03;;;12.40;59.69
35878;BME280;21982;49.804;24.072;2023-04-08T11:18:37;97766.41;;;12.57;59.64
35878;BME280;21982;49.804;24.072;2023-04-08T11:26:25;97755.56;;;12.73;59.34
35878;BME280;21982;49.804;24.072;2023-04-08T11:28:52;97770.16;;;13.05;58.52
35878;BME280;21982;49.804;24.072;2023-04-08T11:31:19;97762.09;;;13.20;58.04
35878;BME280;21982;49.804;24.072;2023-04-08T11:33:49;97760.88;;;13.16;57.27
35878;BME280;21982;49.804;24.072;2023-04-08T11:36:17;97597.25;;;12.08;57.07
35878;BME280;21982;49.804;24.072;2023-04-08T11:38:49;97676.94;;;12.36;57.56
35878;BME280;21982;49.804;24.072;2023-04-08T11:41:15;97211.69;;;9.24;57.27
35878;BME280;21982;49.804;24.072;2023-04-08T11:43:50;97700.53;;;12.46;56.98
35878;BME280;21982;49.804;24.072;2023-04-08T11:46:17;97689.25;;;12.23;57.06
35878;BME280;21982;49.804;24.072;2023-04-08T11:51:26;97684.91;;;12.36;57.06
35878;BME280;21982;49.804;24.072;2023-04-08T11:53:52;97747.06;;;12.85;56.48
35878;BME280;21982;49.804;24.072;2023-04-08T11:56:19;97437.25;;;10.87;56.00
35878;BME280;21982;49.804;24.072;2023-04-08T11:58:49;97485.66;;;10.95;55.61
35878;BME280;21982;49.804;24.072;2023-04-08T12:01:16;97115.00;;;8.56;55.64
35878;BME280;21982;49.804;24.072;2023-04-08T12:04:03;97531.19;;;11.20;55.59
35878;BME280;21982;49.804;24.072;2023-04-08T12:06:31;97659.09;;;11.88;55.96
35878;BME280;21982;49.804;24.072;2023-04-08T12:08:56;97723.22;;;12.27;55.88
35878;BME280;21982;49.804;24.072;2023-04-08T12:11:22;97751.69;;;12.33;55.66
35878;BME280;21982;49.804;24.072;2023-04-08T12:13:48;97682.41;;;11.92;55.90
35878;BME280;21982;49.804;24.072;2023-04-08T12:16:14;97577.44;;;11.32;55.66
35878;BME280;21982;49.804;24.072;2023-04-08T12:18:41;97481.50;;;10.71;56.06
35878;BME280;21982;49.804;24.072;2023-04-08T12:21:06;97768.81;;;12.31;55.60
35878;BME280;21982;49.804;24.072;2023-04-08T12:23:32;97746.19;;;12.56;55.77
35878;BME280;21982;49.804;24.072;2023-04-08T12:25:57;97743.66;;;12.69;55.29
35878;BME280;21982;49.804;24.072;2023-04-08T12:28:23;97751.31;;;12.79;54.83
35878;BME280;21982;49.804;24.072;2023-04-08T12:30:48;97722.56;;;12.89;54.61
35878;BME280;21982;49.804;24.072;2023-04-08T12:33:15;97664.03;;;12.83;54.29
35878;BME280;21982;49.804;24.072;2023-04-08T12:35:41;97737.72;;;13.45;54.03
35878;BME280;21982;49.804;24.072;2023-04-08T12:38:07;97704.13;;;13.37;53.79
35878;BME280;21982;49.804;24.072;2023-04-08T12:40:32;97730.09;;;13.69;53.89
35878;BME280;21982;49.804;24.072;2023-04-08T12:43:00;97590.09;;;12.93;53.59
35878;BME280;21982;49.804;24.072;2023-04-08T12:45:25;97738.44;;;14.07;53.30
35878;BME280;21982;49.804;24.072;2023-04-08T12:47:51;97743.41;;;14.24;52.75
35878;BME280;21982;49.804;24.072;2023-04-08T12:50:17;97728.03;;;14.19;52.35
35878;BME280;21982;49.804;24.072;2023-04-08T12:52:42;97733.97;;;14.21;53.02
35878;BME280;21982;49.804;24.072;2023-04-08T12:55:08;97740.56;;;14.38;52.27
35878;BME280;21982;49.804;24.072;2023-04-08T12:57:34;97644.56;;;13.92;52.19
35878;BME280;21982;49.804;24.072;2023-04-08T12:59:59;97726.06;;;14.41;51.62
35878;BME280;21982;49.804;24.072;2023-04-08T13:02:25;97727.78;;;14.07;51.65
35878;BME280;21982;49.804;24.072;2023-04-08T13:04:51;97723.63;;;13.92;51.87
35878;BME280;21982;49.804;24.072;2023-04-08T13:07:18;97715.56;;;13.72;52.17
35878;BME280;21982;49.804;24.072;2023-04-08T13:09:44;97683.94;;;13.56;52.36
35878;BME280;21982;49.804;24.072;2023-04-08T13:12:12;97676.34;;;13.46;52.18
35878;BME280;21982;49.804;24.072;2023-04-08T13:14:38;97718.97;;;13.59;52.36
35878;BME280;21982;49.804;24.072;2023-04-08T13:17:03;97726.59;;;13.34;52.43
35878;BME280;21982;49.804;24.072;2023-04-08T13:19:29;97692.31;;;12.90;52.82
35878;BME280;21982;49.804;24.072;2023-04-08T13:21:55;97645.16;;;12.43;53.50